Home > Products > Valid Products > MTR

000
SAUS45 KABQ 041055
MTRTCS
METAR KTCS 041053Z AUTO 30007KT 10SM CLR 10/M03 A3022 RMK AO2 SLP175
T01001033 PWINO TSNO





000
SAUS45 KABQ 041055
MTRCQC
METAR KCQC 041053Z AUTO 18006KT 10SM CLR 06/M07 A3034 RMK AO2 SLP221
T00561067





000
SAUS45 KABQ 041055
MTRTCS
METAR KTCS 041053Z AUTO 30007KT 10SM CLR 10/M03 A3022 RMK AO2 SLP175
T01001033 PWINO TSNO





000
SAUS45 KABQ 040954
MTRCQC
METAR KCQC 040953Z AUTO 16006KT 10SM CLR 06/M07 A3035 RMK AO2 SLP222
T00611067





000
SAUS45 KABQ 040954
MTRTCS
METAR KTCS 040953Z AUTO 31007KT 10SM CLR 11/M03 A3022 RMK AO2 SLP172
T01111033 PWINO TSNO





000
SAUS45 KABQ 040854
MTRCQC
METAR KCQC 040853Z AUTO 15005KT 10SM CLR 06/M06 A3035 RMK AO2 SLP222
T00561061 51003





000
SAUS45 KABQ 040854
MTRTCS
METAR KTCS 040853Z AUTO 34006KT 10SM CLR 13/M04 A3022 RMK AO2 SLP169
T01331039 50004 PWINO TSNO





000
SAUS45 KABQ 040754
MTRCQC
METAR KCQC 040753Z AUTO 10007KT 10SM CLR 06/M05 A3034 RMK AO2 SLP218
T00611050





000
SAUS45 KABQ 040754
MTRTCS
METAR KTCS 040753Z AUTO 01003KT 10SM CLR 14/M03 A3022 RMK AO2 SLP169
T01441028 PWINO TSNO





000
SAUS45 KABQ 040655
MTRCQC
METAR KCQC 040653Z AUTO 09007KT 10SM CLR 07/M03 A3035 RMK AO2 SLP224
T00671033 401670044





000
SAUS45 KABQ 040655
MTRCQC
METAR KCQC 040653Z AUTO 09007KT 10SM CLR 07/M03 A3035 RMK AO2 SLP224
T00671033 401670044





000
SAUS45 KABQ 040654
MTRTCS
METAR KTCS 040653Z AUTO 00000KT 10SM CLR 16/M04 A3022 RMK AO2 SLP167
T01561044 402440083 PWINO TSNO





000
SAUS45 KABQ 040555
MTRCQC
METAR KCQC 040553Z AUTO 09006KT 10SM CLR 08/M02 A3033 RMK AO2 SLP214
T00781022 10150 20072 51012





000
SAUS45 KABQ 040555
MTRCQC
METAR KCQC 040553Z AUTO 09006KT 10SM CLR 08/M02 A3033 RMK AO2 SLP214
T00781022 10150 20072 51012





000
SAUS45 KABQ 040554
MTRTCS
METAR KTCS 040553Z AUTO 00000KT 10SM CLR 16/M04 A3020 RMK AO2 SLP164
T01611044 10244 20156 53019 PWINO TSNO





000
SAUS45 KABQ 040554
MTRTCS
METAR KTCS 040553Z AUTO 00000KT 10SM CLR 16/M04 A3020 RMK AO2 SLP164
T01611044 10244 20156 53019 PWINO TSNO





000
SAUS45 KABQ 040455
MTRCQC
METAR KCQC 040453Z AUTO 10006KT 10SM CLR 08/M02 A3032 RMK AO2 SLP211
T00781017





000
SAUS45 KABQ 040454
MTRTCS
METAR KTCS 040453Z AUTO 03005KT 10SM CLR 16/M04 A3018 RMK AO2 SLP159
T01561044 PWINO TSNO





000
SAUS45 KABQ 040354
MTRTCS
METAR KTCS 040353Z AUTO 36004KT 10SM CLR 17/M03 A3016 RMK AO2 SLP152
T01721033 PWINO TSNO





000
SAUS45 KABQ 040354
MTRTCS
METAR KTCS 040353Z AUTO 36004KT 10SM CLR 17/M03 A3016 RMK AO2 SLP152
T01721033 PWINO TSNO





000
SAUS45 KABQ 040354
MTRCQC
METAR KCQC 040353Z AUTO 10005KT 10SM CLR 08/M02 A3031 RMK AO2 SLP210
T00831017





000
SAUS45 KABQ 040254
MTRTCS
METAR KTCS 040253Z AUTO 03005KT 10SM CLR 19/M03 A3014 RMK AO2 SLP145
T01891028 53012 PWINO TSNO





000
SAUS45 KABQ 040254
MTRCQC
METAR KCQC 040253Z AUTO 09004KT 10SM CLR 09/M02 A3029 RMK AO2 SLP202
T00941017 53013





000
SAUS45 KABQ 040154
MTRTCS
METAR KTCS 040153Z AUTO 04005KT 10SM CLR 22/M02 A3012 RMK AO2 SLP138
T02171022 PWINO TSNO





000
SAUS45 KABQ 040154
MTRCQC
METAR KCQC 040153Z AUTO 10006KT 10SM CLR 11/M02 A3027 RMK AO2 SLP201
T01061017





000
SAUS45 KABQ 040154
MTRTCS
METAR KTCS 040153Z AUTO 04005KT 10SM CLR 22/M02 A3012 RMK AO2 SLP138
T02171022 PWINO TSNO





000
SAUS45 KABQ 040154
MTRCQC
METAR KCQC 040153Z AUTO 10006KT 10SM CLR 11/M02 A3027 RMK AO2 SLP201
T01061017





000
SAUS45 KABQ 040054
MTRTCS
METAR KTCS 040053Z AUTO 05004KT 10SM CLR 23/M02 A3011 RMK AO2 SLP137
T02281022 PWINO TSNO





000
SAUS45 KABQ 040054
MTRCQC
METAR KCQC 040053Z AUTO 11007KT 10SM CLR 14/M02 A3025 RMK AO2 SLP190
T01391017





000
SAUS45 KABQ 032355
MTRCQC
METAR KCQC 032353Z AUTO 08008KT 10SM CLR 15/M02 A3024 RMK AO2 SLP188
60000 T01501017 10167 20122 51005





000
SAUS45 KABQ 032355
MTRCQC
METAR KCQC 032353Z AUTO 08008KT 10SM CLR 15/M02 A3024 RMK AO2 SLP188
60000 T01501017 10167 20122 51005





000
SAUS45 KABQ 032354
MTRTCS
METAR KTCS 032353Z AUTO 05005KT 10SM CLR 23/M02 A3010 RMK AO2 SLP136
T02331022 10244 20200 55003 PWINO TSNO





000
SAUS45 KABQ 032354
MTRTCS
METAR KTCS 032353Z AUTO 05005KT 10SM CLR 23/M02 A3010 RMK AO2 SLP136
T02331022 10244 20200 55003 PWINO TSNO





000
SAUS45 KABQ 032255
MTRCQC
METAR KCQC 032253Z AUTO 10011KT 10SM BKN100 14/M01 A3024 RMK AO2
SLP187 T01441011





000
SAUS45 KABQ 032255
MTRCQC
METAR KCQC 032253Z AUTO 10011KT 10SM BKN100 14/M01 A3024 RMK AO2
SLP187 T01441011





000
SAUS45 KABQ 032254
MTRTCS
METAR KTCS 032253Z AUTO 11004KT 10SM FEW120 23/M02 A3010 RMK AO2
SLP132 T02281017 PWINO TSNO





000
SAUS45 KABQ 032254
MTRTCS
METAR KTCS 032253Z AUTO 11004KT 10SM FEW120 23/M02 A3010 RMK AO2
SLP132 T02281017 PWINO TSNO





000
SAUS45 KABQ 032158 COR
MTRCQC
METAR KCQC 032153Z AUTO 07016KT 10SM FEW045 SCT050 SCT085 14/01
A3024 RMK AO2 RAB23E46 SLP188 P0000 T01440006





000
SAUS45 KABQ 032156 COR
MTRCQC
METAR KCQC 032153Z AUTO 07016KT 10SM FEW045 SCT050 SCT085 14/01
A3024 RMK AO2 RAB23E46 SLP188 P0000 T01440006





000
SAUS45 KABQ 032155 COR
MTRCQC
METAR KCQC 032153Z AUTO 07016KT 10SM FEW045 SCT050 SCT085 14/01
A3024 RMK AO2 RAB23E46 SLP188 P0000 T01440006





000
SAUS45 KABQ 032155
MTRCQC
METAR KCQC 032153Z AUTO 07016KT 10SM FEW045 SCT050 SCT085 14/01
A3024 RMK AO2 RAB23E46 SLP188 P0000 T01440006





000
SAUS45 KABQ 032155
MTRTCS
METAR KTCS 032153Z AUTO VRB03KT 10SM BKN110 23/M02 A3010 RMK AO2
SLP132 T02331022 PWINO TSNO





000
SAUS45 KABQ 032055
MTRCQC
METAR KCQC 032053Z AUTO VRB04KT 10SM SCT070 BKN100 16/M02 A3023 RMK
AO2 SLP180 T01561022 50002





000
SAUS45 KABQ 032054
MTRTCS
METAR KTCS 032053Z AUTO 09008KT 10SM SCT100 BKN120 23/M03 A3011 RMK
AO2 SLP133 T02331028 56013 PWINO TSNO





000
SAUS45 KABQ 031954
MTRCQC
METAR KCQC 031953Z AUTO 07009G16KT 10SM FEW065 FEW100 16/M01 A3023
RMK AO2 SLP178 T01561011





000
SAUS45 KABQ 031954
MTRTCS
METAR KTCS 031953Z AUTO VRB06KT 10SM CLR 23/M03 A3012 RMK AO2 SLP133
T02331028 PWINO TSNO





000
SAUS45 KABQ 031954
MTRCQC
METAR KCQC 031953Z AUTO 07009G16KT 10SM FEW065 FEW100 16/M01 A3023
RMK AO2 SLP178 T01561011





000
SAUS45 KABQ 031855
MTRCQC
METAR KCQC 031853Z AUTO 08016G21KT 10SM BKN060 BKN070 OVC085 13/M01
A3023 RMK AO2 PK WND 09027/1834 SLP184 T01281011





000
SAUS45 KABQ 031855
MTRCQC
METAR KCQC 031853Z AUTO 08016G21KT 10SM BKN060 BKN070 OVC085 13/M01
A3023 RMK AO2 PK WND 09027/1834 SLP184 T01281011





000
SAUS45 KABQ 031854
MTRTCS
METAR KTCS 031853Z AUTO 07008KT 10SM CLR 22/M03 A3014 RMK AO2 SLP147
T02171028 PWINO TSNO





000
SAUS45 KABQ 031854
MTRTCS
METAR KTCS 031853Z AUTO 07008KT 10SM CLR 22/M03 A3014 RMK AO2 SLP147
T02171028 PWINO TSNO





000
SAUS45 KABQ 031758 COR
MTRCQC
METAR KCQC 031753Z AUTO 07012G19KT 10SM OVC070 14/M03 A3022 RMK AO2
SLP179 T01441028 10161 20044 51005





000
SAUS45 KABQ 031758 COR
MTRCQC
METAR KCQC 031753Z AUTO 07012G19KT 10SM OVC070 14/M03 A3022 RMK AO2
SLP179 T01441028 10161 20044 51005





000
SAUS45 KABQ 031756 COR
MTRCQC
METAR KCQC 031753Z AUTO 07012G19KT 10SM OVC070 14/M03 A3022 RMK AO2
SLP179 T01441028 10161 20044 51005





000
SAUS45 KABQ 031755 COR
MTRCQC
METAR KCQC 031753Z AUTO 07012G19KT 10SM OVC070 14/M03 A3022 RMK AO2
SLP179 T01441028 10161 20044 51005





000
SAUS45 KABQ 031754
MTRTCS
METAR KTCS 031753Z AUTO 00000KT 10SM CLR 20/01 A3015 RMK AO2 SLP153
T02000006 10200 20083 58006 PWINO TSNO





000
SAUS45 KABQ 031754
MTRCQC
METAR KCQC 031753Z AUTO 07012G19KT 10SM OVC070 14/M03 A3022 RMK AO2
SLP179 T01441028 10161 20044 51005





000
SAUS45 KABQ 031654
MTRTCS
METAR KTCS 031653Z AUTO VRB04KT 10SM CLR 18/02 A3017 RMK AO2 SLP159
T01830022 PWINO TSNO





000
SAUS45 KABQ 031654
MTRTCS
METAR KTCS 031653Z AUTO VRB04KT 10SM CLR 18/02 A3017 RMK AO2 SLP159
T01830022 PWINO TSNO





000
SAUS45 KABQ 031654
MTRCQC
METAR KCQC 031653Z AUTO 32009G15KT 10SM CLR 14/M04 A3022 RMK AO2
SLP178 T01441039





000
SAUS45 KABQ 031654
MTRCQC
METAR KCQC 031653Z AUTO 32009G15KT 10SM CLR 14/M04 A3022 RMK AO2
SLP178 T01441039





000
SAUS45 KABQ 031555
MTRCQC
METAR KCQC 031553Z AUTO 34014KT 10SM CLR 13/M02 A3021 RMK AO2 SLP182
T01281022





000
SAUS45 KABQ 031555
MTRCQC
METAR KCQC 031553Z AUTO 34014KT 10SM CLR 13/M02 A3021 RMK AO2 SLP182
T01281022





000
SAUS45 KABQ 031554
MTRTCS
METAR KTCS 031553Z AUTO 09004KT 10SM CLR 17/02 A3017 RMK AO2 SLP161
T01670022 PWINO TSNO





000
SAUS45 KABQ 031454
MTRCQC
METAR KCQC 031453Z AUTO 31012KT 10SM CLR 11/M01 A3020 RMK AO2 SLP182
T01111006 51012





000
SAUS45 KABQ 031454
MTRTCS
METAR KTCS 031453Z AUTO 03005KT 10SM BKN100 16/02 A3017 RMK AO2
SLP159 T01560017 51013 PWINO TSNO





000
SAUS45 KABQ 031354
MTRCQC
METAR KCQC 031353Z AUTO 32012KT 10SM CLR 08/01 A3019 RMK AO2 SLP179
T00830011





000
SAUS45 KABQ 031354
MTRTCS
METAR KTCS 031353Z AUTO 33007KT 10SM OVC095 12/02 A3017 RMK AO2
SLP160 T01220017 PWINO TSNO





000
SAUS45 KABQ 031254
MTRTCS
METAR KTCS 031253Z AUTO 32007KT 10SM BKN100 09/02 A3015 RMK AO2
SLP158 T00890017 PWINO TSNO





000
SAUS45 KABQ 031254
MTRCQC
METAR KCQC 031253Z AUTO 33010KT 10SM CLR 06/01 A3017 RMK AO2 SLP167
T00560011





000
SAUS45 KABQ 031254
MTRCQC
METAR KCQC 031253Z AUTO 33010KT 10SM CLR 06/01 A3017 RMK AO2 SLP167
T00560011





000
SAUS45 KABQ 031254
MTRTCS
METAR KTCS 031253Z AUTO 32007KT 10SM BKN100 09/02 A3015 RMK AO2
SLP158 T00890017 PWINO TSNO





000
SAUS45 KABQ 031154
MTRCQC
METAR KCQC 031153Z AUTO 35008KT 10SM CLR 04/00 A3016 RMK AO2 SLP163
T00440000 10067 20039 55001





000
SAUS45 KABQ 031154
MTRTCS
METAR KTCS 031153Z AUTO 33004KT 10SM CLR 09/02 A3013 RMK AO2 SLP151
T00890022 10133 20089 51004 PWINO TSNO





000
SAUS45 KABQ 031154
MTRCQC
METAR KCQC 031153Z AUTO 35008KT 10SM CLR 04/00 A3016 RMK AO2 SLP163
T00440000 10067 20039 55001





000
SAUS45 KABQ 031154
MTRTCS
METAR KTCS 031153Z AUTO 33004KT 10SM CLR 09/02 A3013 RMK AO2 SLP151
T00890022 10133 20089 51004 PWINO TSNO





000
SAUS45 KABQ 031055
MTRTCS
METAR KTCS 031053Z AUTO 02003KT 10SM CLR 10/03 A3013 RMK AO2 SLP147
T01000028 PWINO TSNO





000
SAUS45 KABQ 031054
MTRCQC
METAR KCQC 031053Z AUTO 34010KT 10SM SCT120 05/M01 A3015 RMK AO2
SLP159 T00501006





000
SAUS45 KABQ 030954
MTRCQC
METAR KCQC 030953Z AUTO 33009KT 10SM FEW110 05/M01 A3016 RMK AO2
SLP167 T00501011





000
SAUS45 KABQ 030954
MTRCQC
METAR KCQC 030953Z AUTO 33009KT 10SM FEW110 05/M01 A3016 RMK AO2
SLP167 T00501011





000
SAUS45 KABQ 030954
MTRTCS
METAR KTCS 030953Z AUTO 04006KT 10SM CLR 11/03 A3012 RMK AO2 SLP146
T01060028 PWINO TSNO





000
SAUS45 KABQ 030854
MTRTCS
METAR KTCS 030853Z AUTO 02007KT 10SM OVC110 12/03 A3012 RMK AO2
SLP145 T01220028 58003 PWINO TSNO





000
SAUS45 KABQ 030854
MTRCQC
METAR KCQC 030853Z AUTO 31010KT 10SM OVC110 06/M01 A3016 RMK AO2
SLP165 T00561011 58007





000
SAUS45 KABQ 030854
MTRTCS
METAR KTCS 030853Z AUTO 02007KT 10SM OVC110 12/03 A3012 RMK AO2
SLP145 T01220028 58003 PWINO TSNO





000
SAUS45 KABQ 030854
MTRCQC
METAR KCQC 030853Z AUTO 31010KT 10SM OVC110 06/M01 A3016 RMK AO2
SLP165 T00561011 58007





000
SAUS45 KABQ 030755
MTRCQC
METAR KCQC 030753Z AUTO 28013KT 10SM BKN110 07/M01 A3018 RMK AO2
SLP167 T00671006





000
SAUS45 KABQ 030755
MTRCQC
METAR KCQC 030753Z AUTO 28013KT 10SM BKN110 07/M01 A3018 RMK AO2
SLP167 T00671006





000
SAUS45 KABQ 030754
MTRTCS
METAR KTCS 030753Z AUTO 36007KT 10SM OVC110 13/M01 A3012 RMK AO2
SLP147 T01281006 PWINO TSNO





000
SAUS45 KABQ 030754
MTRTCS
METAR KTCS 030753Z AUTO 36007KT 10SM OVC110 13/M01 A3012 RMK AO2
SLP147 T01281006 PWINO TSNO





000
SAUS45 KABQ 030654
MTRTCS
METAR KTCS 030653Z AUTO 36004KT 10SM BKN110 11/M02 A3013 RMK AO2
SLP155 T01111017 402060050 PWINO TSNO





000
SAUS45 KABQ 030654
MTRCQC
METAR KCQC 030653Z AUTO 29012KT 10SM OVC110 07/M02 A3019 RMK AO2
SLP183 T00671022 401391028





000
SAUS45 KABQ 030555
MTRTCS
METAR KTCS 030553Z AUTO 08003KT 10SM CLR 13/M02 A3013 RMK AO2 SLP154
T01281017 10206 20122 50007 PWINO TSNO





000
SAUS45 KABQ 030555
MTRTCS
METAR KTCS 030553Z AUTO 08003KT 10SM CLR 13/M02 A3013 RMK AO2 SLP154
T01281017 10206 20122 50007 PWINO TSNO





000
SAUS45 KABQ 030554
MTRCQC
METAR KCQC 030553Z AUTO 29008KT 10SM BKN110 06/M03 A3019 RMK AO2
SLP187 T00561028 10133 20039 50000





000
SAUS45 KABQ 030554
MTRCQC
METAR KCQC 030553Z AUTO 29008KT 10SM BKN110 06/M03 A3019 RMK AO2
SLP187 T00561028 10133 20039 50000





000
SAUS45 KABQ 030455
MTRCQC
METAR KCQC 030453Z AUTO 28010KT 10SM CLR 05/M03 A3020 RMK AO2 SLP200
T00501028





000
SAUS45 KABQ 030454
MTRTCS
METAR KTCS 030453Z AUTO 10004KT 10SM CLR 14/M02 A3013 RMK AO2 SLP156
T01391022 PWINO TSNO





000
SAUS45 KABQ 030354
MTRTCS
METAR KTCS 030353Z AUTO 15006KT 10SM CLR 16/M03 A3012 RMK AO2 SLP152
T01561033 PWINO TSNO





000
SAUS45 KABQ 030354
MTRTCS
METAR KTCS 030353Z AUTO 15006KT 10SM CLR 16/M03 A3012 RMK AO2 SLP152
T01561033 PWINO TSNO





000
SAUS45 KABQ 030354
MTRCQC
METAR KCQC 030353Z AUTO 25008KT 10SM CLR 04/M03 A3020 RMK AO2 SLP212
T00441028





000
SAUS45 KABQ 030254
MTRCQC
METAR KCQC 030253Z AUTO 25008KT 10SM CLR 06/M03 A3019 RMK AO2 SLP210
T00561028 53007





000
SAUS45 KABQ 030254
MTRTCS
METAR KTCS 030253Z AUTO 19004KT 10SM CLR 17/M04 A3010 RMK AO2 SLP147
T01721039 53008 PWINO TSNO





000
SAUS45 KABQ 030154
MTRCQC
METAR KCQC 030153Z AUTO 28007KT 10SM CLR 08/M03 A3017 RMK AO2 SLP201
T00831033





000
SAUS45 KABQ 030154
MTRCQC
METAR KCQC 030153Z AUTO 28007KT 10SM CLR 08/M03 A3017 RMK AO2 SLP201
T00831033





000
SAUS45 KABQ 030154
MTRTCS
METAR KTCS 030153Z AUTO 18006KT 10SM CLR 19/M03 A3008 RMK AO2 SLP139
T01891033 PWINO TSNO





000
SAUS45 KABQ 030054
MTRTCS
METAR KTCS 030053Z AUTO 21006KT 10SM CLR 19/M02 A3008 RMK AO2 SLP140
T01941022 PWINO TSNO





000
SAUS45 KABQ 030054
MTRCQC
METAR KCQC 030053Z AUTO 29009KT 10SM SCT065 13/M03 A3016 RMK AO2
SLP185 T01281033





000
SAUS45 KABQ 030054
MTRTCS
METAR KTCS 030053Z AUTO 21006KT 10SM CLR 19/M02 A3008 RMK AO2 SLP140
T01941022 PWINO TSNO





000
SAUS45 KABQ 030054
MTRCQC
METAR KCQC 030053Z AUTO 29009KT 10SM SCT065 13/M03 A3016 RMK AO2
SLP185 T01281033





000
SAUS45 KABQ 022354
MTRCQC
METAR KCQC 022353Z AUTO 32008KT 10SM BKN060 BKN075 13/M02 A3016 RMK
AO2 SLP187 T01281022 10139 20072 56011





000
SAUS45 KABQ 022354
MTRTCS
METAR KTCS 022353Z AUTO 10SM CLR 20/M02 A3007 RMK AO2 SLP137 60000
T02001017 10206 20133 56022 PWINO TSNO





000
SAUS45 KABQ 022354
MTRCQC
METAR KCQC 022353Z AUTO 32008KT 10SM BKN060 BKN075 13/M02 A3016 RMK
AO2 SLP187 T01281022 10139 20072 56011





000
SAUS45 KABQ 022354
MTRTCS
METAR KTCS 022353Z AUTO 10SM CLR 20/M02 A3007 RMK AO2 SLP137 60000
T02001017 10206 20133 56022 PWINO TSNO





000
SAUS45 KABQ 022255
MTRCQC
METAR KCQC 022253Z AUTO 26012G16KT 10SM BKN055 OVC070 13/M02 A3017
RMK AO2 SLP183 T01331022





000
SAUS45 KABQ 022254
MTRTCS
METAR KTCS 022253Z AUTO 09009KT 10SM FEW080 21/M02 A3009 RMK AO2
SLP141 T02061017 PWINO TSNO





000
SAUS45 KABQ 022154
MTRCQC
METAR KCQC 022153Z AUTO 27010KT 10SM FEW055 12/M03 A3018 RMK AO2
SLP190 T01171028





000
SAUS45 KABQ 022154
MTRTCS
METAR KTCS 022153Z AUTO VRB03KT 10SM CLR 19/M01 A3011 RMK AO2
RAB07E35 SLP150 P0000 T01891011 PWINO TSNO





000
SAUS45 KABQ 022054
MTRTCS
METAR KTCS 022053Z AUTO 09007KT 10SM CLR 18/M01 A3015 RMK AO2
RAE1958B19E50 SLP165 P0000 60000 T01781006 58028 TSNO





000
SAUS45 KABQ 022054
MTRCQC
METAR KCQC 022053Z AUTO 25012G18KT 10SM CLR 12/M02 A3020 RMK AO2
SLP198 T01221017 58018





000
SAUS45 KABQ 021955
MTRTCS
METAR KTCS 021953Z AUTO 18008KT 10SM -RA CLR 17/M01 A3018 RMK AO2
SLP178 P0000 T01671006 TSNO





000
SAUS45 KABQ 021954
MTRCQC
METAR KCQC 021953Z AUTO 27012G17KT 10SM CLR 12/M02 A3023 RMK AO2
SLP207 T01171017





000
SAUS45 KABQ 021854
MTRCQC
METAR KCQC 021853Z AUTO VRB06KT 10SM CLR 09/M02 A3025 RMK AO2 SLP223
T00891017





000
SAUS45 KABQ 021854
MTRTCS
METAR KTCS 021853Z AUTO VRB05KT 10SM -RA CLR 16/00 A3021 RMK AO2
SLP192 P0000 T01560000 TSNO





000
SAUS45 KABQ 021755
MTRCQC
METAR KCQC 021753Z AUTO 24007KT 10SM FEW024 08/M01 A3027 RMK AO2
SLP231 T00781006 10078 21028 58004





000
SAUS45 KABQ 021755
MTRCQC
METAR KCQC 021753Z AUTO 24007KT 10SM FEW024 08/M01 A3027 RMK AO2
SLP231 T00781006 10078 21028 58004





000
SAUS45 KABQ 021754
MTRTCS
METAR KTCS 021753Z AUTO 06007KT 10SM -RA CLR 14/00 A3024 RMK AO2
RAB1658 SLP204 P0000 60000 T01390000 10144 20050 58010 TSNO





000
SAUS45 KABQ 021731
MTRCQC
SPECI KCQC 021729Z AUTO 19006KT 10SM SCT024 06/M01 A3028 RMK AO2
T00611011





000
SAUS45 KABQ 021654
MTRTCS
METAR KTCS 021653Z AUTO 07005KT 10SM CLR 12/00 A3026 RMK AO2 SLP215
T01170000 TSNO





000
SAUS45 KABQ 021654
MTRCQC
METAR KCQC 021653Z AUTO 26005KT 10SM OVC022 05/M01 A3029 RMK AO2
SLP249 T00501011





000
SAUS45 KABQ 021654
MTRTCS
METAR KTCS 021653Z AUTO 07005KT 10SM CLR 12/00 A3026 RMK AO2 SLP215
T01170000 TSNO





000
SAUS45 KABQ 021654
MTRCQC
METAR KCQC 021653Z AUTO 26005KT 10SM OVC022 05/M01 A3029 RMK AO2
SLP249 T00501011





000
SAUS45 KABQ 021555
MTRCQC
METAR KCQC 021553Z AUTO 00000KT 10SM BKN016 02/M02 A3029 RMK AO2
SLP256 T00221017





000
SAUS45 KABQ 021554
MTRTCS
METAR KTCS 021553Z AUTO 02011KT 10SM CLR 11/00 A3027 RMK AO2 SLP220
P0000 T01060000 PWINO TSNO





000
SAUS45 KABQ 021547
MTRCQC
SPECI KCQC 021546Z AUTO 25004KT 10SM BKN014 03/M02 A3029 RMK AO2
T00281017





000
SAUS45 KABQ 021533
MTRCQC
SPECI KCQC 021532Z AUTO 00000KT 10SM SCT012 02/M02 A3028 RMK AO2
T00171022





000
SAUS45 KABQ 021533
MTRCQC
SPECI KCQC 021532Z AUTO 00000KT 10SM SCT012 02/M02 A3028 RMK AO2
T00171022





000
SAUS45 KABQ 021454
MTRCQC
METAR KCQC 021453Z AUTO 21003KT 10SM BKN010 00/M02 A3028 RMK AO2 CIG
008V013 SLP261 T00001022 51006





000
SAUS45 KABQ 021454
MTRTCS
METAR KTCS 021453Z AUTO 05012KT 10SM -RA CLR 08/00 A3028 RMK AO2
SLP225 P0000 60000 T00830000 51018 TSNO





000
SAUS45 KABQ 021449
MTRCQC
SPECI KCQC 021448Z AUTO 22004KT 10SM BKN009 00/M02 A3028 RMK AO2 CIG
008V013





000
SAUS45 KABQ 021432
MTRCQC
SPECI KCQC 021430Z AUTO 17003KT 10SM SCT002 M01/M02 A3028 RMK AO2
T10061017





000
SAUS45 KABQ 021412
MTRCQC
SPECI KCQC 021411Z AUTO 00000KT 3SM BR OVC002 M01/M03 A3028 RMK AO2
T10111028





000
SAUS45 KABQ 021412
MTRCQC
SPECI KCQC 021411Z AUTO 00000KT 3SM BR OVC002 M01/M03 A3028 RMK AO2
T10111028





000
SAUS45 KABQ 021409
MTRCQC
SPECI KCQC 021407Z AUTO 00000KT 1 1/2SM BR OVC002 M02/M03 A3028 RMK
AO2 VIS 3/4V4 T10171028





000
SAUS45 KABQ 021409
MTRCQC
SPECI KCQC 021407Z AUTO 00000KT 1 1/2SM BR OVC002 M02/M03 A3028 RMK
AO2 VIS 3/4V4 T10171028





000
SAUS45 KABQ 021355
MTRCQC
METAR KCQC 021353Z AUTO 00000KT 1/2SM FZFG VV002 M02/M03 A3027 RMK
AO2 SLP261 T10171028





000
SAUS45 KABQ 021354
MTRTCS
METAR KTCS 021353Z AUTO 02012KT 10SM -RA CLR 07/00 A3026 RMK AO2
SLP222 P0000 T00670000 TSNO





000
SAUS45 KABQ 021316
MTRCQC
SPECI KCQC 021315Z AUTO 00000KT 1/4SM FZFG VV002 M02/M03 A3027 RMK
AO2 T10221028





000
SAUS45 KABQ 021316
MTRCQC
SPECI KCQC 021315Z AUTO 00000KT 1/4SM FZFG VV002 M02/M03 A3027 RMK
AO2 T10221028





000
SAUS45 KABQ 021254
MTRTCS
METAR KTCS 021253Z AUTO 03010KT 10SM -RA CLR 05/M01 A3024 RMK AO2
SLP215 P0000 T00501006 TSNO





000
SAUS45 KABQ 021254
MTRCQC
METAR KCQC 021253Z AUTO 00000KT 1/2SM FZFG VV002 M02/M03 A3026 RMK
AO2 SLP257 T10221033





000
SAUS45 KABQ 021226
MTRCQC
SPECI KCQC 021224Z AUTO 16004KT 1/4SM FZFG VV002 M02/M03 A3026 RMK
AO2 T10221033





000
SAUS45 KABQ 021218
MTRCQC
SPECI KCQC 021217Z AUTO 16004KT 1/2SM FZFG VV002 M03/M03 A3026 RMK
AO2 T10281033





000
SAUS45 KABQ 021218
MTRCQC
SPECI KCQC 021217Z AUTO 16004KT 1/2SM FZFG VV002 M03/M03 A3026 RMK
AO2 T10281033





000
SAUS45 KABQ 021202
MTRCQC
SPECI KCQC 021201Z AUTO 00000KT 1 3/4SM BR BKN002 M03/M04 A3025 RMK
AO2 T10281039





000
SAUS45 KABQ 021154
MTRCQC
METAR KCQC 021153Z AUTO 00000KT 10SM SCT002 M03/M04 A3025 RMK AO2
SLP253 60001 70005 T10281039 11006 21028 53001





000
SAUS45 KABQ 021154
MTRTCS
METAR KTCS 021153Z AUTO 03010KT 10SM -RA CLR 05/M01 A3022 RMK AO2
SLP202 P0000 60000 T00501006 10067 20050 51008 TSNO





000
SAUS45 KABQ 021129
MTRCQC
SPECI KCQC 021127Z AUTO 10003KT 10SM FEW003 SCT030 M02/M03 A3025 RMK
AO2 T10221033





000
SAUS45 KABQ 021054
MTRTCS
METAR KTCS 021053Z AUTO 02014G21KT 10SM -RA CLR 06/00 A3021 RMK AO2
SLP196 P0000 T00560000 TSNO





000
SAUS45 KABQ 021054
MTRCQC
METAR KCQC 021053Z AUTO 11006KT 10SM BKN004 OVC031 M02/M03 A3024 RMK
AO2 SLP250 T10171028





000
SAUS45 KABQ 021054
MTRTCS
METAR KTCS 021053Z AUTO 02014G21KT 10SM -RA CLR 06/00 A3021 RMK AO2
SLP196 P0000 T00560000 TSNO





000
SAUS45 KABQ 021054
MTRCQC
METAR KCQC 021053Z AUTO 11006KT 10SM BKN004 OVC031 M02/M03 A3024 RMK
AO2 SLP250 T10171028





000
SAUS45 KABQ 021002
MTRCQC
SPECI KCQC 021001Z AUTO 12008KT 10SM BKN004 OVC033 M01/M02 A3024 RMK
AO2 T10111022





000
SAUS45 KABQ 020955
MTRCQC
METAR KCQC 020953Z AUTO 13007KT 10SM BKN005 OVC033 M01/M03 A3024 RMK
AO2 SLP247 T10111028





000
SAUS45 KABQ 020955
MTRCQC
METAR KCQC 020953Z AUTO 13007KT 10SM BKN005 OVC033 M01/M03 A3024 RMK
AO2 SLP247 T10111028





000
SAUS45 KABQ 020954
MTRTCS
METAR KTCS 020953Z AUTO 03013G19KT 10SM -RA OVC050 06/00 A3021 RMK
AO2 SLP193 P0000 T00610000 TSNO





000
SAUS45 KABQ 020933
MTRCQC
SPECI KCQC 020932Z AUTO 13007KT 10SM BKN006 OVC033 M01/M02 A3024 RMK
AO2 CIG 003V009 T10111022





000
SAUS45 KABQ 020855
MTRCQC
METAR KCQC 020853Z AUTO 11009KT 9SM SCT004 SCT017 OVC034 M01/M02
A3025 RMK AO2 SNE49 SLP245 P0001 60001 T10111022 56004





000
SAUS45 KABQ 020854
MTRTCS
METAR KTCS 020853Z AUTO 02015G20KT 10SM -RA OVC050 06/00 A3019 RMK
AO2 SLP189 P0000 60000 T00610000 54000 TSNO





000
SAUS45 KABQ 020852
MTRCQC
SPECI KCQC 020850Z AUTO 11007KT 9SM SCT004 BKN017 OVC034 M01/M02
A3025 RMK AO2 SNE49 P0001





000
SAUS45 KABQ 020836
MTRCQC
SPECI KCQC 020835Z AUTO 11008KT 5SM -SN BR BKN005 BKN017 OVC034
M01/M02 A3024 RMK AO2 P0001 T10111022





000
SAUS45 KABQ 020819 COR
MTRCQC
SPECI KCQC 020817Z AUTO 11009KT 2SM -SN BR BKN005 BKN012 OVC017
M01/M02 A3025 RMK AO2 CIG 003V008 P0001 T10111022





000
SAUS45 KABQ 020819 COR
MTRCQC
SPECI KCQC 020817Z AUTO 11009KT 2SM -SN BR BKN005 BKN012 OVC017
M01/M02 A3025 RMK AO2 CIG 003V008 P0001 T10111022





000
SAUS45 KABQ 020818
MTRCQC
SPECI KCQC 020817Z AUTO 11009KT 2SM -SN BR BKN005 BKN012 OVC017
M01/M02 A3025 RMK AO2 CIG 003V008 P0001 T10111022





000
SAUS45 KABQ 020814 COR
MTRCQC
SPECI KCQC 020810Z AUTO 11009KT 2 1/2SM -SN BR SCT006 BKN013 OVC017
M01/M02 A3025 RMK AO2 P0001 T10111022





000
SAUS45 KABQ 020812 COR
MTRCQC
SPECI KCQC 020810Z AUTO 11009KT 2 1/2SM -SN BR SCT006 BKN013 OVC017
M01/M02 A3025 RMK AO2 P0001 T10111022





000
SAUS45 KABQ 020812 COR
MTRCQC
SPECI KCQC 020810Z AUTO 11009KT 2 1/2SM -SN BR SCT006 BKN013 OVC017
M01/M02 A3025 RMK AO2 P0001 T10111022





000
SAUS45 KABQ 020811 COR
MTRCQC
SPECI KCQC 020810Z AUTO 11009KT 2 1/2SM -SN BR SCT006 BKN013 OVC017
M01/M02 A3025 RMK AO2 P0001 T10111022





000
SAUS45 KABQ 020811
MTRCQC
SPECI KCQC 020810Z AUTO 11009KT 2 1/2SM -SN BR SCT006 BKN013 OVC017
M01/M02 A3025 RMK AO2 P0001 T10111022





000
SAUS45 KABQ 020811 COR
MTRCQC
SPECI KCQC 020810Z AUTO 11009KT 2 1/2SM -SN BR SCT006 BKN013 OVC017
M01/M02 A3025 RMK AO2 P0001 T10111022





000
SAUS45 KABQ 020808 COR
MTRCQC
SPECI KCQC 020805Z AUTO 11011KT 3SM -SN BR SCT006 OVC017 M01/M02
A3024 RMK AO2 P0001 T10111022





000
SAUS45 KABQ 020806 COR
MTRCQC
SPECI KCQC 020805Z AUTO 11011KT 3SM -SN BR SCT006 OVC017 M01/M02
A3024 RMK AO2 P0001 T10111022





000
SAUS45 KABQ 020805
MTRCQC
SPECI KCQC 020805Z AUTO 11011KT 3SM -SN BR SCT006 OVC017 M01/M02
A3024 RMK AO2 P0001 T10111022





000
SAUS45 KABQ 020757 COR
MTRCQC
METAR KCQC 020753Z AUTO 11010KT 3SM -SN BR SCT006 BKN014 OVC019
M01/M02 A3025 RMK AO2 SNB24 SLP252 P0000 T10111022





000
SAUS45 KABQ 020756
MTRTCS
METAR KTCS 020753Z AUTO 02014G21KT 10SM -RA SCT050 06/01 A3020 RMK
AO2 SLP188 P0000 T00610006 TSNO





000
SAUS45 KABQ 020755 COR
MTRCQC
METAR KCQC 020753Z AUTO 11010KT 3SM -SN BR SCT006 BKN014 OVC019
M01/M02 A3025 RMK AO2 SNB24 SLP252 P0000 T10111022





000
SAUS45 KABQ 020754 COR
MTRCQC
METAR KCQC 020753Z AUTO 11010KT 3SM -SN BR SCT006 BKN014 OVC019
M01/M02 A3025 RMK AO2 SNB24 SLP252 P0000 T10111022





000
SAUS45 KABQ 020754
MTRCQC
METAR KCQC 020753Z AUTO 11010KT 3SM -SN BR SCT006 BKN014 OVC019
M01/M02 A3025 RMK AO2 SNB24 SLP252 P0000 T10111022





000
SAUS45 KABQ 020754 COR
MTRCQC
METAR KCQC 020753Z AUTO 11010KT 3SM -SN BR SCT006 BKN014 OVC019
M01/M02 A3025 RMK AO2 SNB24 SLP252 P0000 T10111022





000
SAUS45 KABQ 020748
MTRCQC
SPECI KCQC 020747Z AUTO 12011KT 3SM -SN BR SCT006 BKN012 OVC017
M01/M02 A3025 RMK AO2 SNB24 P0000





000
SAUS45 KABQ 020743 COR
MTRCQC
SPECI KCQC 020738Z AUTO 12008KT 2 1/2SM -SN BR BKN006 BKN012 OVC017
M01/M02 A3026 RMK AO2 SNB24 CIG 004V010 P0000 T10111022





000
SAUS45 KABQ 020741 COR
MTRCQC
SPECI KCQC 020738Z AUTO 12008KT 2 1/2SM -SN BR BKN006 BKN012 OVC017
M01/M02 A3026 RMK AO2 SNB24 CIG 004V010 P0000 T10111022





000
SAUS45 KABQ 020741 COR
MTRCQC
SPECI KCQC 020738Z AUTO 12008KT 2 1/2SM -SN BR BKN006 BKN012 OVC017
M01/M02 A3026 RMK AO2 SNB24 CIG 004V010 P0000 T10111022





000
SAUS45 KABQ 020740 COR
MTRCQC
SPECI KCQC 020738Z AUTO 12008KT 2 1/2SM -SN BR BKN006 BKN012 OVC017
M01/M02 A3026 RMK AO2 SNB24 CIG 004V010 P0000 T10111022





000
SAUS45 KABQ 020740 COR
MTRCQC
SPECI KCQC 020738Z AUTO 12008KT 2 1/2SM -SN BR BKN006 BKN012 OVC017
M01/M02 A3026 RMK AO2 SNB24 CIG 004V010 P0000 T10111022





000
SAUS45 KABQ 020739
MTRCQC
SPECI KCQC 020738Z AUTO 12008KT 2 1/2SM -SN BR BKN006 BKN012 OVC017
M01/M02 A3026 RMK AO2 SNB24 CIG 004V010 P0000 T10111022





000
SAUS45 KABQ 020739
MTRCQC
SPECI KCQC 020738Z AUTO 12008KT 2 1/2SM -SN BR BKN006 BKN012 OVC017
M01/M02 A3026 RMK AO2 SNB24 CIG 004V010 P0000 T10111022





000
SAUS45 KABQ 020658 COR
MTRCQC
METAR KCQC 020653Z AUTO 11011KT 10SM BKN005 OVC010 M01/M02 A3026 RMK
AO2 CIG 003V009 SLP257 T10111022 400221017





000
SAUS45 KABQ 020658 COR
MTRCQC
METAR KCQC 020653Z AUTO 11011KT 10SM BKN005 OVC010 M01/M02 A3026 RMK
AO2 CIG 003V009 SLP257 T10111022 400221017





000
SAUS45 KABQ 020656 COR
MTRCQC
METAR KCQC 020653Z AUTO 11011KT 10SM BKN005 OVC010 M01/M02 A3026 RMK
AO2 CIG 003V009 SLP257 T10111022 400221017





000
SAUS45 KABQ 020656 COR
MTRCQC
METAR KCQC 020653Z AUTO 11011KT 10SM BKN005 OVC010 M01/M02 A3026 RMK
AO2 CIG 003V009 SLP257 T10111022 400221017





000
SAUS45 KABQ 020655 COR
MTRCQC
METAR KCQC 020653Z AUTO 11011KT 10SM BKN005 OVC010 M01/M02 A3026 RMK
AO2 CIG 003V009 SLP257 T10111022 400221017





000
SAUS45 KABQ 020655 COR
MTRCQC
METAR KCQC 020653Z AUTO 11011KT 10SM BKN005 OVC010 M01/M02 A3026 RMK
AO2 CIG 003V009 SLP257 T10111022 400221017





000
SAUS45 KABQ 020654
MTRTCS
METAR KTCS 020653Z AUTO 02017G23KT 10SM -RA CLR 06/01 A3019 RMK AO2
SLP184 P0000 T00610006 401780061 TSNO





000
SAUS45 KABQ 020654
MTRCQC
METAR KCQC 020653Z AUTO 11011KT 10SM BKN005 OVC010 M01/M02 A3026 RMK
AO2 CIG 003V009 SLP257 T10111022 400221017





000
SAUS45 KABQ 020558 COR
MTRCQC
METAR KCQC 020553Z AUTO 11011KT 10SM OVC005 M01/M02 A3026 RMK AO2
CIG 003V010 SLP251 60001 T10061017 10011 21011 50004





000
SAUS45 KABQ 020558 COR
MTRCQC
METAR KCQC 020553Z AUTO 11011KT 10SM OVC005 M01/M02 A3026 RMK AO2
CIG 003V010 SLP251 60001 T10061017 10011 21011 50004





000
SAUS45 KABQ 020556 COR
MTRCQC
METAR KCQC 020553Z AUTO 11011KT 10SM OVC005 M01/M02 A3026 RMK AO2
CIG 003V010 SLP251 60001 T10061017 10011 21011 50004





000
SAUS45 KABQ 020556 COR
MTRCQC
METAR KCQC 020553Z AUTO 11011KT 10SM OVC005 M01/M02 A3026 RMK AO2
CIG 003V010 SLP251 60001 T10061017 10011 21011 50004





000
SAUS45 KABQ 020555 COR
MTRCQC
METAR KCQC 020553Z AUTO 11011KT 10SM OVC005 M01/M02 A3026 RMK AO2
CIG 003V010 SLP251 60001 T10061017 10011 21011 50004





000
SAUS45 KABQ 020555 COR
MTRCQC
METAR KCQC 020553Z AUTO 11011KT 10SM OVC005 M01/M02 A3026 RMK AO2
CIG 003V010 SLP251 60001 T10061017 10011 21011 50004





000
SAUS45 KABQ 020554
MTRTCS
METAR KTCS 020553Z AUTO 02016G23KT 10SM -RA CLR 07/01 A3019 RMK AO2
PK WND 03026/0527 SLP185 P0000 60000 T00670006 10128 20067 51019
TSNO





000
SAUS45 KABQ 020554
MTRCQC
METAR KCQC 020553Z AUTO 11011KT 10SM OVC005 M01/M02 A3026 RMK AO2
CIG 003V010 SLP251 60001 T10061017 10011 21011 50004





000
SAUS45 KABQ 020554
MTRTCS
METAR KTCS 020553Z AUTO 02016G23KT 10SM -RA CLR 07/01 A3019 RMK AO2
PK WND 03026/0527 SLP185 P0000 60000 T00670006 10128 20067 51019
TSNO





000
SAUS45 KABQ 020554
MTRCQC
METAR KCQC 020553Z AUTO 11011KT 10SM OVC005 M01/M02 A3026 RMK AO2
CIG 003V010 SLP251 60001 T10061017 10011 21011 50004





000
SAUS45 KABQ 020552
MTRCQC
SPECI KCQC 020551Z AUTO 10009KT 10SM OVC005 M01/M02 A3026 RMK AO2
CIG 003V010





000
SAUS45 KABQ 020552
MTRCQC
SPECI KCQC 020551Z AUTO 10009KT 10SM OVC005 M01/M02 A3026 RMK AO2
CIG 003V010





000
SAUS45 KABQ 020455
MTRCQC
METAR KCQC 020453Z AUTO 10013KT 10SM OVC003 M01/M02 A3026 RMK AO2
SNE38 CIG 002V007 SLP254 P0000 T10061017





000
SAUS45 KABQ 020454
MTRTCS
METAR KTCS 020453Z AUTO 02014G24KT 10SM -RA CLR 07/01 A3018 RMK AO2
PK WND 02030/0432 SLP179 P0000 T00670006 TSNO





000
SAUS45 KABQ 020454
MTRTCS
METAR KTCS 020453Z AUTO 02014G24KT 10SM -RA CLR 07/01 A3018 RMK AO2
PK WND 02030/0432 SLP179 P0000 T00670006 TSNO





000
SAUS45 KABQ 020428
MTRCQC
SPECI KCQC 020426Z AUTO 10014KT 4SM -SN BR OVC004 M01/M02 A3026 RMK
AO2 P0000 T10061017





000
SAUS45 KABQ 020428
MTRCQC
SPECI KCQC 020426Z AUTO 10014KT 4SM -SN BR OVC004 M01/M02 A3026 RMK
AO2 P0000 T10061017





000
SAUS45 KABQ 020416 COR
MTRCQC
SPECI KCQC 020411Z AUTO 10014KT 2 1/2SM -SN BR OVC004 M01/M01 A3025
RMK AO2 P0000 T10061011





000
SAUS45 KABQ 020414 COR
MTRCQC
SPECI KCQC 020411Z AUTO 10014KT 2 1/2SM -SN BR OVC004 M01/M01 A3025
RMK AO2 P0000 T10061011





000
SAUS45 KABQ 020414 COR
MTRCQC
SPECI KCQC 020411Z AUTO 10014KT 2 1/2SM -SN BR OVC004 M01/M01 A3025
RMK AO2 P0000 T10061011





000
SAUS45 KABQ 020413 COR
MTRCQC
SPECI KCQC 020411Z AUTO 10014KT 2 1/2SM -SN BR OVC004 M01/M01 A3025
RMK AO2 P0000 T10061011





000
SAUS45 KABQ 020413 COR
MTRCQC
SPECI KCQC 020411Z AUTO 10014KT 2 1/2SM -SN BR OVC004 M01/M01 A3025
RMK AO2 P0000 T10061011





000
SAUS45 KABQ 020412
MTRCQC
SPECI KCQC 020411Z AUTO 10014KT 2 1/2SM -SN BR OVC004 M01/M01 A3025
RMK AO2 P0000 T10061011





000
SAUS45 KABQ 020355
MTRTCS
METAR KTCS 020353Z AUTO 03022G30KT 10SM -RA CLR 07/01 A3016 RMK AO2
PK WND 01033/0311 SLP176 P0000 T00720006 TSNO





000
SAUS45 KABQ 020354
MTRCQC
METAR KCQC 020353Z AUTO 10011KT 1SM -SN BR VV003 00/M01 A3025 RMK
AO2 SLP249 P0001 T00001011





000
SAUS45 KABQ 020312 COR
MTRCQC
SPECI KCQC 020308Z AUTO 10014KT 2SM -SN BR OVC003 00/M01 A3023 RMK
AO2 CIG 002V008 P0000 T00001011





000
SAUS45 KABQ 020312 COR
MTRCQC
SPECI KCQC 020308Z AUTO 10014KT 2SM -SN BR OVC003 00/M01 A3023 RMK
AO2 CIG 002V008 P0000 T00001011





000
SAUS45 KABQ 020311 COR
MTRCQC
SPECI KCQC 020308Z AUTO 10014KT 2SM -SN BR OVC003 00/M01 A3023 RMK
AO2 CIG 002V008 P0000 T00001011





000
SAUS45 KABQ 020311 COR
MTRCQC
SPECI KCQC 020308Z AUTO 10014KT 2SM -SN BR OVC003 00/M01 A3023 RMK
AO2 CIG 002V008 P0000 T00001011





000
SAUS45 KABQ 020310 COR
MTRCQC
SPECI KCQC 020308Z AUTO 10014KT 2SM -SN BR OVC003 00/M01 A3023 RMK
AO2 CIG 002V008 P0000 T00001011





000
SAUS45 KABQ 020309
MTRCQC
SPECI KCQC 020308Z AUTO 10014KT 2SM -SN BR OVC003 00/M01 A3023 RMK
AO2 CIG 002V008 P0000 T00001011





000
SAUS45 KABQ 020309
MTRCQC
SPECI KCQC 020308Z AUTO 10014KT 2SM -SN BR OVC003 00/M01 A3023 RMK
AO2 CIG 002V008 P0000 T00001011





000
SAUS45 KABQ 020258 COR
MTRCQC
METAR KCQC 020253Z AUTO 09014G21KT 3SM -SN BR OVC003 00/M01 A3022
RMK AO2 UPB16E23B41E43SNB14E16B23E41B43 CIG 002V008 SLP243 P0000
60000 T00001011 53013





000
SAUS45 KABQ 020256 COR
MTRCQC
METAR KCQC 020253Z AUTO 09014G21KT 3SM -SN BR OVC003 00/M01 A3022
RMK AO2 UPB16E23B41E43SNB14E16B23E41B43 CIG 002V008 SLP243 P0000
60000 T00001011 53013





000
SAUS45 KABQ 020255
MTRCQC
METAR KCQC 020253Z AUTO 09014G21KT 3SM -SN BR OVC003 00/M01 A3022
RMK AO2 UPB16E23B41E43SNB14E16B23E41B43 CIG 002V008 SLP243 P0000
60000 T00001011 53013





000
SAUS45 KABQ 020255
MTRCQC
METAR KCQC 020253Z AUTO 09014G21KT 3SM -SN BR OVC003 00/M01 A3022
RMK AO2 UPB16E23B41E43SNB14E16B23E41B43 CIG 002V008 SLP243 P0000
60000 T00001011 53013





000
SAUS45 KABQ 020255 COR
MTRCQC
METAR KCQC 020253Z AUTO 09014G21KT 3SM -SN BR OVC003 00/M01 A3022
RMK AO2 UPB16E23B41E43SNB14E16B23E41B43 CIG 002V008 SLP243 P0000
60000 T00001011 53013





000
SAUS45 KABQ 020254
MTRTCS
METAR KTCS 020253Z AUTO 02018G27KT 10SM -RA CLR 08/01 A3013 RMK AO2
PK WND 01028/0221 SLP166 P0000 60000 T00830011 51028 TSNO





000
SAUS45 KABQ 020254
MTRTCS
METAR KTCS 020253Z AUTO 02018G27KT 10SM -RA CLR 08/01 A3013 RMK AO2
PK WND 01028/0221 SLP166 P0000 60000 T00830011 51028 TSNO





000
SAUS45 KABQ 020223 COR
MTRCQC
SPECI KCQC 020218Z AUTO 10014KT 7SM UP OVC003 00/M01 A3021 RMK AO2
UPB16SNB14E16 CIG 002V006 P0000 T00001011





000
SAUS45 KABQ 020221 COR
MTRCQC
SPECI KCQC 020218Z AUTO 10014KT 7SM UP OVC003 00/M01 A3021 RMK AO2
UPB16SNB14E16 CIG 002V006 P0000 T00001011





000
SAUS45 KABQ 020220 COR
MTRCQC
SPECI KCQC 020218Z AUTO 10014KT 7SM UP OVC003 00/M01 A3021 RMK AO2
UPB16SNB14E16 CIG 002V006 P0000 T00001011





000
SAUS45 KABQ 020219
MTRCQC
SPECI KCQC 020218Z AUTO 10014KT 7SM UP OVC003 00/M01 A3021 RMK AO2
UPB16SNB14E16 CIG 002V006 P0000 T00001011





000
SAUS45 KABQ 020155
MTRCQC
METAR KCQC 020153Z AUTO 09017G23KT 10SM OVC005 00/M01 A3020 RMK AO2
SLP235 T00001011





000
SAUS45 KABQ 020154
MTRTCS
METAR KTCS 020153Z AUTO 01019G28KT 10SM -RA BKN060 OVC080 09/02
A3010 RMK AO2 PK WND 02028/0145 SLP158 P0000 T00890017 TSNO





000
SAUS45 KABQ 020054
MTRCQC
METAR KCQC 020053Z AUTO 08015KT 10SM OVC008 01/M02 A3019 RMK AO2 CIG
005V011 SLP231 T00061017





000
SAUS45 KABQ 020054
MTRTCS
METAR KTCS 020053Z AUTO 01015G26KT 10SM -RA BKN095 10/03 A3006 RMK
AO2 PK WND 01029/0030 RAB30 SLP146 P0000 T01000028 TSNO





000
SAUS45 KABQ 012358 COR
MTRCQC
METAR KCQC 012353Z AUTO 08017G22KT 10SM OVC004 01/M01 A3017 RMK AO2
CIG 003V008 SLP222 60001 T00111011 10022 20000 53004





000
SAUS45 KABQ 012358 COR
MTRCQC
METAR KCQC 012353Z AUTO 08017G22KT 10SM OVC004 01/M01 A3017 RMK AO2
CIG 003V008 SLP222 60001 T00111011 10022 20000 53004





000
SAUS45 KABQ 012356 COR
MTRCQC
METAR KCQC 012353Z AUTO 08017G22KT 10SM OVC004 01/M01 A3017 RMK AO2
CIG 003V008 SLP222 60001 T00111011 10022 20000 53004





000
SAUS45 KABQ 012356 COR
MTRCQC
METAR KCQC 012353Z AUTO 08017G22KT 10SM OVC004 01/M01 A3017 RMK AO2
CIG 003V008 SLP222 60001 T00111011 10022 20000 53004





000
SAUS45 KABQ 012355 COR
MTRCQC
METAR KCQC 012353Z AUTO 08017G22KT 10SM OVC004 01/M01 A3017 RMK AO2
CIG 003V008 SLP222 60001 T00111011 10022 20000 53004





000
SAUS45 KABQ 012355 COR
MTRCQC
METAR KCQC 012353Z AUTO 08017G22KT 10SM OVC004 01/M01 A3017 RMK AO2
CIG 003V008 SLP222 60001 T00111011 10022 20000 53004





000
SAUS45 KABQ 012354
MTRTCS
METAR KTCS 012353Z AUTO 03019G23KT 10SM BKN070 OVC090 13/04 A3003
RMK AO2 SLP129 60000 T01280044 10178 20122 53008 TSNO





000
SAUS45 KABQ 012354
MTRCQC
METAR KCQC 012353Z AUTO 08017G22KT 10SM OVC004 01/M01 A3017 RMK AO2
CIG 003V008 SLP222 60001 T00111011 10022 20000 53004





000
SAUS45 KABQ 012354
MTRCQC
METAR KCQC 012353Z AUTO 08017G22KT 10SM OVC004 01/M01 A3017 RMK AO2
CIG 003V008 SLP222 60001 T00111011 10022 20000 53004





000
SAUS45 KABQ 012354
MTRTCS
METAR KTCS 012353Z AUTO 03019G23KT 10SM BKN070 OVC090 13/04 A3003
RMK AO2 SLP129 60000 T01280044 10178 20122 53008 TSNO





000
SAUS45 KABQ 012255
MTRCQC
METAR KCQC 012253Z AUTO 08017KT 10SM OVC003 01/M01 A3016 RMK AO2
SLP217 T00061011





000
SAUS45 KABQ 012255
MTRTCS
METAR KTCS 012253Z AUTO 02017G24KT 10SM OVC075 13/04 A3000 RMK AO2
RAE31 SLP117 P0000 T01330044 TSNO





000
SAUS45 KABQ 012255
MTRCQC
METAR KCQC 012253Z AUTO 08017KT 10SM OVC003 01/M01 A3016 RMK AO2
SLP217 T00061011





000
SAUS45 KABQ 012255
MTRTCS
METAR KTCS 012253Z AUTO 02017G24KT 10SM OVC075 13/04 A3000 RMK AO2
RAE31 SLP117 P0000 T01330044 TSNO





000
SAUS45 KABQ 012206
MTRCQC
SPECI KCQC 012205Z AUTO 09016G23KT 10SM OVC004 01/M02 A3015 RMK AO2
CIG 003V009 T00061017





000
SAUS45 KABQ 012158 COR
MTRCQC
METAR KCQC 012153Z AUTO 08018G25KT 10SM BKN006 OVC009 01/M01 A3015
RMK AO2 PK WND 09028/2106 SLP214 T00111011





000
SAUS45 KABQ 012156 COR
MTRCQC
METAR KCQC 012153Z AUTO 08018G25KT 10SM BKN006 OVC009 01/M01 A3015
RMK AO2 PK WND 09028/2106 SLP214 T00111011





000
SAUS45 KABQ 012156 COR
MTRCQC
METAR KCQC 012153Z AUTO 08018G25KT 10SM BKN006 OVC009 01/M01 A3015
RMK AO2 PK WND 09028/2106 SLP214 T00111011





000
SAUS45 KABQ 012155
MTRTCS
METAR KTCS 012153Z AUTO 08010KT 10SM -RA FEW031 BKN075 OVC095 14/04
A3000 RMK AO2 RAB2054 SLP113 P0000 T01390039 TSNO





000
SAUS45 KABQ 012155
MTRCQC
METAR KCQC 012153Z AUTO 08018G25KT 10SM BKN006 OVC009 01/M01 A3015
RMK AO2 PK WND 09028/2106 SLP214 T00111011





000
SAUS45 KABQ 012155 COR
MTRCQC
METAR KCQC 012153Z AUTO 08018G25KT 10SM BKN006 OVC009 01/M01 A3015
RMK AO2 PK WND 09028/2106 SLP214 T00111011





000
SAUS45 KABQ 012059 COR
MTRCQC
METAR KCQC 012053Z AUTO 09022G27KT 10SM BKN005 OVC010 02/M02 A3016
RMK AO2 PK WND 09031/2014 CIG 004V008 SLP213 60001 T00171017 51002





000
SAUS45 KABQ 012056 COR
MTRCQC
METAR KCQC 012053Z AUTO 09022G27KT 10SM BKN005 OVC010 02/M02 A3016
RMK AO2 PK WND 09031/2014 CIG 004V008 SLP213 60001 T00171017 51002





000
SAUS45 KABQ 012055 COR
MTRCQC
METAR KCQC 012053Z AUTO 09022G27KT 10SM BKN005 OVC010 02/M02 A3016
RMK AO2 PK WND 09031/2014 CIG 004V008 SLP213 60001 T00171017 51002





000
SAUS45 KABQ 012055
MTRTCS
METAR KTCS 012053Z AUTO 06012G18KT 10SM BKN075 OVC090 14/03 A3000
RMK AO2 RAE46 SLP113 P0000 60000 T01390028 53005 TSNO





000
SAUS45 KABQ 012055
MTRTCS
METAR KTCS 012053Z AUTO 06012G18KT 10SM BKN075 OVC090 14/03 A3000
RMK AO2 RAE46 SLP113 P0000 60000 T01390028 53005 TSNO





000
SAUS45 KABQ 012054
MTRCQC
METAR KCQC 012053Z AUTO 09022G27KT 10SM BKN005 OVC010 02/M02 A3016
RMK AO2 PK WND 09031/2014 CIG 004V008 SLP213 60001 T00171017 51002





000
SAUS45 KABQ 011958 COR
MTRCQC
METAR KCQC 011953Z AUTO 09020G26KT 10SM OVC006 00/M02 A3016 RMK AO2
PK WND 08027/1905 UPB14E20SNE14 CIG 003V010 SLP216 P0000 T00001017





000
SAUS45 KABQ 011956 COR
MTRCQC
METAR KCQC 011953Z AUTO 09020G26KT 10SM OVC006 00/M02 A3016 RMK AO2
PK WND 08027/1905 UPB14E20SNE14 CIG 003V010 SLP216 P0000 T00001017





000
SAUS45 KABQ 011955 COR
MTRCQC
METAR KCQC 011953Z AUTO 09020G26KT 10SM OVC006 00/M02 A3016 RMK AO2
PK WND 08027/1905 UPB14E20SNE14 CIG 003V010 SLP216 P0000 T00001017





000
SAUS45 KABQ 011955 COR
MTRCQC
METAR KCQC 011953Z AUTO 09020G26KT 10SM OVC006 00/M02 A3016 RMK AO2
PK WND 08027/1905 UPB14E20SNE14 CIG 003V010 SLP216 P0000 T00001017





000
SAUS45 KABQ 011954
MTRTCS
METAR KTCS 011953Z AUTO 10008KT 10SM -RA BKN075 OVC100 15/01 A2999
RMK AO2 SLP101 P0000 T01500011 TSNO





000
SAUS45 KABQ 011954
MTRCQC
METAR KCQC 011953Z AUTO 09020G26KT 10SM OVC006 00/M02 A3016 RMK AO2
PK WND 08027/1905 UPB14E20SNE14 CIG 003V010 SLP216 P0000 T00001017





000
SAUS45 KABQ 011902 COR
MTRCQC
METAR KCQC 011853Z AUTO 08019G25KT 4SM -SN BR OVC007 00/M02 A3016
RMK AO2 PK WND 09026/1827 CIG 005V013 SLP216 P0001 T00001017





000
SAUS45 KABQ 011900 COR
MTRCQC
METAR KCQC 011853Z AUTO 08019G25KT 4SM -SN BR OVC007 00/M02 A3016
RMK AO2 PK WND 09026/1827 CIG 005V013 SLP216 P0001 T00001017





000
SAUS45 KABQ 011859 COR
MTRCQC
METAR KCQC 011853Z AUTO 08019G25KT 4SM -SN BR OVC007 00/M02 A3016
RMK AO2 PK WND 09026/1827 CIG 005V013 SLP216 P0001 T00001017





000
SAUS45 KABQ 011856 COR
MTRCQC
METAR KCQC 011853Z AUTO 08019G25KT 4SM -SN BR OVC007 00/M02 A3016
RMK AO2 PK WND 09026/1827 CIG 005V013 SLP216 P0001 T00001017





000
SAUS45 KABQ 011855
MTRCQC
METAR KCQC 011853Z AUTO 08019G25KT 4SM -SN BR OVC007 00/M02 A3016
RMK AO2 PK WND 09026/1827 CIG 005V013 SLP216 P0001 T00001017





000
SAUS45 KABQ 011855 COR
MTRCQC
METAR KCQC 011853Z AUTO 08019G25KT 4SM -SN BR OVC007 00/M02 A3016
RMK AO2 PK WND 09026/1827 CIG 005V013 SLP216 P0001 T00001017





000
SAUS45 KABQ 011854
MTRTCS
METAR KTCS 011853Z AUTO 10012G20KT 10SM -RA FEW080 16/02 A2998 RMK
AO2 PK WND 19026/1807 WSHFT 1813 RAB03 SLP093 P0000 T01610017 TSNO





000
SAUS45 KABQ 011854
MTRTCS
METAR KTCS 011853Z AUTO 10012G20KT 10SM -RA FEW080 16/02 A2998 RMK
AO2 PK WND 19026/1807 WSHFT 1813 RAB03 SLP093 P0000 T01610017 TSNO





000
SAUS45 KABQ 011839 COR
MTRTCS
SPECI KTCS 011833Z AUTO 12016G21KT 10SM -RA FEW055 SCT080 16/01
A2999 RMK AO2 PK WND 19026/1807 WSHFT 1813 RAB03 P0000 T01610011
TSNO





000
SAUS45 KABQ 011839 COR
MTRTCS
SPECI KTCS 011833Z AUTO 12016G21KT 10SM -RA FEW055 SCT080 16/01
A2999 RMK AO2 PK WND 19026/1807 WSHFT 1813 RAB03 P0000 T01610011
TSNO





000
SAUS45 KABQ 011835 COR
MTRTCS
SPECI KTCS 011833Z AUTO 12016G21KT 10SM -RA FEW055 SCT080 16/01
A2999 RMK AO2 PK WND 19026/1807 WSHFT 1813 RAB03 P0000 T01610011
TSNO





000
SAUS45 KABQ 011824 COR
MTRTCS
SPECI KTCS 011817Z AUTO 16014G24KT 10SM -RA BKN060 BKN080 16/M01
A2999 RMK AO2 PK WND 19026/1807 WSHFT 1757 RAB03 P0000 T01561011
TSNO





000
SAUS45 KABQ 011824 COR
MTRTCS
SPECI KTCS 011817Z AUTO 16014G24KT 10SM -RA BKN060 BKN080 16/M01
A2999 RMK AO2 PK WND 19026/1807 WSHFT 1757 RAB03 P0000 T01561011
TSNO





000
SAUS45 KABQ 011821 COR
MTRCQC
SPECI KCQC 011816Z AUTO 07021G26KT 3SM -SN BR BKN007 BKN010 OVC021
01/M01 A3015 RMK AO2 PK WND 07026/1812 P0001 T00061011





000
SAUS45 KABQ 011820 COR
MTRTCS
SPECI KTCS 011817Z AUTO 16014G24KT 10SM -RA BKN060 BKN080 16/M01
A2999 RMK AO2 PK WND 19026/1807 WSHFT 1757 RAB03 P0000 T01561011
TSNO





000
SAUS45 KABQ 011819 COR
MTRCQC
SPECI KCQC 011816Z AUTO 07021G26KT 3SM -SN BR BKN007 BKN010 OVC021
01/M01 A3015 RMK AO2 PK WND 07026/1812 P0001 T00061011





000
SAUS45 KABQ 011818 COR
MTRCQC
SPECI KCQC 011816Z AUTO 07021G26KT 3SM -SN BR BKN007 BKN010 OVC021
01/M01 A3015 RMK AO2 PK WND 07026/1812 P0001 T00061011





000
SAUS45 KABQ 011817
MTRCQC
SPECI KCQC 011816Z AUTO 07021G26KT 3SM -SN BR BKN007 BKN010 OVC021
01/M01 A3015 RMK AO2 PK WND 07026/1812 P0001 T00061011





000
SAUS45 KABQ 011758 COR
MTRCQC
METAR KCQC 011753Z AUTO 09021KT 1 1/4SM -SN BR BKN007 OVC012 01/M01
A3015 RMK AO2 PK WND 08031/1716 SLP210 P0000 60002 T00111006 10011
21017 51009





000
SAUS45 KABQ 011756 COR
MTRCQC
METAR KCQC 011753Z AUTO 09021KT 1 1/4SM -SN BR BKN007 OVC012 01/M01
A3015 RMK AO2 PK WND 08031/1716 SLP210 P0000 60002 T00111006 10011
21017 51009





000
SAUS45 KABQ 011755 COR
MTRCQC
METAR KCQC 011753Z AUTO 09021KT 1 1/4SM -SN BR BKN007 OVC012 01/M01
A3015 RMK AO2 PK WND 08031/1716 SLP210 P0000 60002 T00111006 10011
21017 51009





000
SAUS45 KABQ 011754
MTRTCS
METAR KTCS 011753Z AUTO 12011G21KT 10SM SCT060 OVC090 15/00 A2999
RMK AO2 SLP094 T01500000 10167 20083 58003 TSNO





000
SAUS45 KABQ 011754
MTRCQC
METAR KCQC 011753Z AUTO 09021KT 1 1/4SM -SN BR BKN007 OVC012 01/M01
A3015 RMK AO2 PK WND 08031/1716 SLP210 P0000 60002 T00111006 10011
21017 51009





000
SAUS45 KABQ 011740
MTRCQC
SPECI KCQC 011739Z AUTO 08019G30KT 1 1/4SM -SN BR OVC007 01/M01
A3015 RMK AO2 PK WND 08031/1716 P0000 T00061011





000
SAUS45 KABQ 011740
MTRCQC
SPECI KCQC 011739Z AUTO 08019G30KT 1 1/4SM -SN BR OVC007 01/M01
A3015 RMK AO2 PK WND 08031/1716 P0000 T00061011





000
SAUS45 KABQ 011737 COR
MTRCQC
SPECI KCQC 011732Z AUTO 09018G28KT 2SM -SN BR OVC007 01/M01 A3015
RMK AO2 PK WND 08031/1716 P0000 T00061006





000
SAUS45 KABQ 011735 COR
MTRCQC
SPECI KCQC 011732Z AUTO 09018G28KT 2SM -SN BR OVC007 01/M01 A3015
RMK AO2 PK WND 08031/1716 P0000 T00061006





000
SAUS45 KABQ 011734
MTRCQC
SPECI KCQC 011732Z AUTO 09018G28KT 2SM -SN BR OVC007 01/M01 A3015
RMK AO2 PK WND 08031/1716 P0000 T00061006





000
SAUS45 KABQ 011720
MTRCQC
SPECI KCQC 011719Z AUTO 09023G31KT 3SM -SN BR OVC006 01/M01 A3014
RMK AO2 PK WND 08031/1716 P0000 T00111006





000
SAUS45 KABQ 011654
MTRTCS
METAR KTCS 011653Z AUTO 09008KT 10SM FEW055 BKN075 OVC100 15/00
A3000 RMK AO2 SLP097 T01500000 TSNO





000
SAUS45 KABQ 011654
MTRCQC
METAR KCQC 011653Z AUTO 09019G28KT 2 1/2SM -SN BR BKN006 OVC010
00/M02 A3014 RMK AO2 PK WND 10030/1610 SLP208 P0000 T00001017





000
SAUS45 KABQ 011650 COR
MTRCQC
SPECI KCQC 011645Z AUTO 08021G28KT 2 1/2SM -SN BR OVC006 M01/M02
A3014 RMK AO2 PK WND 10030/1610 P0000 T10061017





000
SAUS45 KABQ 011648 COR
MTRCQC
SPECI KCQC 011645Z AUTO 08021G28KT 2 1/2SM -SN BR OVC006 M01/M02
A3014 RMK AO2 PK WND 10030/1610 P0000 T10061017





000
SAUS45 KABQ 011647 COR
MTRCQC
SPECI KCQC 011645Z AUTO 08021G28KT 2 1/2SM -SN BR OVC006 M01/M02
A3014 RMK AO2 PK WND 10030/1610 P0000 T10061017





000
SAUS45 KABQ 011647
MTRCQC
SPECI KCQC 011645Z AUTO 08021G28KT 2 1/2SM -SN BR OVC006 M01/M02
A3014 RMK AO2 PK WND 10030/1610 P0000 T10061017





000
SAUS45 KABQ 011558 COR
MTRCQC
METAR KCQC 011553Z AUTO 08019G27KT 1 1/2SM -SN BR OVC006 M01/M02
A3013 RMK AO2 PK WND 08028/1541 SLP196 P0002 T10061022





000
SAUS45 KABQ 011558 COR
MTRCQC
METAR KCQC 011553Z AUTO 08019G27KT 1 1/2SM -SN BR OVC006 M01/M02
A3013 RMK AO2 PK WND 08028/1541 SLP196 P0002 T10061022





000
SAUS45 KABQ 011556 COR
MTRCQC
METAR KCQC 011553Z AUTO 08019G27KT 1 1/2SM -SN BR OVC006 M01/M02
A3013 RMK AO2 PK WND 08028/1541 SLP196 P0002 T10061022





000
SAUS45 KABQ 011555 COR
MTRCQC
METAR KCQC 011553Z AUTO 08019G27KT 1 1/2SM -SN BR OVC006 M01/M02
A3013 RMK AO2 PK WND 08028/1541 SLP196 P0002 T10061022





000
SAUS45 KABQ 011554
MTRCQC
METAR KCQC 011553Z AUTO 08019G27KT 1 1/2SM -SN BR OVC006 M01/M02
A3013 RMK AO2 PK WND 08028/1541 SLP196 P0002 T10061022





000
SAUS45 KABQ 011554
MTRTCS
METAR KTCS 011553Z AUTO 05014KT 10SM CLR 14/00 A3000 RMK AO2 SLP097
T01390000 TSNO





000
SAUS45 KABQ 011554
MTRTCS
METAR KTCS 011553Z AUTO 05014KT 10SM CLR 14/00 A3000 RMK AO2 SLP097
T01390000 TSNO





000
SAUS45 KABQ 011549 COR
MTRCQC
SPECI KCQC 011541Z AUTO 08022G28KT 1 1/2SM -SN BR OVC006 M01/M02
A3012 RMK AO2 PK WND 08028/1541 P0001 T10061022





000
SAUS45 KABQ 011547 COR
MTRCQC
SPECI KCQC 011541Z AUTO 08022G28KT 1 1/2SM -SN BR OVC006 M01/M02
A3012 RMK AO2 PK WND 08028/1541 P0001 T10061022





000
SAUS45 KABQ 011546 COR
MTRCQC
SPECI KCQC 011541Z AUTO 08022G28KT 1 1/2SM -SN BR OVC006 M01/M02
A3012 RMK AO2 PK WND 08028/1541 P0001 T10061022





000
SAUS45 KABQ 011544 COR
MTRCQC
SPECI KCQC 011541Z AUTO 08022G28KT 1 1/2SM -SN BR OVC006 M01/M02
A3012 RMK AO2 PK WND 08028/1541 P0001 T10061022





000
SAUS45 KABQ 011543 COR
MTRCQC
SPECI KCQC 011541Z AUTO 08022G28KT 1 1/2SM -SN BR OVC006 M01/M02
A3012 RMK AO2 PK WND 08028/1541 P0001 T10061022





000
SAUS45 KABQ 011542
MTRCQC
SPECI KCQC 011541Z AUTO 08022G28KT 1 1/2SM -SN BR OVC006 M01/M02
A3012 RMK AO2 PK WND 08028/1541 P0001 T10061022





000
SAUS45 KABQ 011539 COR
MTRCQC
SPECI KCQC 011534Z AUTO 08020G26KT 2SM -SN BR OVC005 M01/M02 A3012
RMK AO2 PK WND 07028/1503 P0001 T10061022





000
SAUS45 KABQ 011537 COR
MTRCQC
SPECI KCQC 011534Z AUTO 08020G26KT 2SM -SN BR OVC005 M01/M02 A3012
RMK AO2 PK WND 07028/1503 P0001 T10061022





000
SAUS45 KABQ 011535
MTRCQC
SPECI KCQC 011534Z AUTO 08020G26KT 2SM -SN BR OVC005 M01/M02 A3012
RMK AO2 PK WND 07028/1503 P0001 T10061022





000
SAUS45 KABQ 011535
MTRCQC
SPECI KCQC 011534Z AUTO 08020G26KT 2SM -SN BR OVC005 M01/M02 A3012
RMK AO2 PK WND 07028/1503 P0001 T10061022





000
SAUS45 KABQ 011522
MTRCQC
SPECI KCQC 011520Z AUTO 08020G28KT 1 1/4SM -SN BR OVC005 M01/M02
A3012 RMK AO2 PK WND 07028/1503 P0001 T10111022





000
SAUS45 KABQ 011516 COR
MTRCQC
SPECI KCQC 011511Z AUTO 08021G28KT 3/4SM -SN BR BKN004 OVC010
M01/M03 A3011 RMK AO2 PK WND 07028/1503 P0001 T10111028





000
SAUS45 KABQ 011516 COR
MTRCQC
SPECI KCQC 011511Z AUTO 08021G28KT 3/4SM -SN BR BKN004 OVC010
M01/M03 A3011 RMK AO2 PK WND 07028/1503 P0001 T10111028





000
SAUS45 KABQ 011514 COR
MTRCQC
SPECI KCQC 011511Z AUTO 08021G28KT 3/4SM -SN BR BKN004 OVC010
M01/M03 A3011 RMK AO2 PK WND 07028/1503 P0001 T10111028





000
SAUS45 KABQ 011513 COR
MTRCQC
SPECI KCQC 011511Z AUTO 08021G28KT 3/4SM -SN BR BKN004 OVC010
M01/M03 A3011 RMK AO2 PK WND 07028/1503 P0001 T10111028





000
SAUS45 KABQ 011512
MTRCQC
SPECI KCQC 011511Z AUTO 08021G28KT 3/4SM -SN BR BKN004 OVC010
M01/M03 A3011 RMK AO2 PK WND 07028/1503 P0001 T10111028





000
SAUS45 KABQ 011454
MTRCQC
METAR KCQC 011453Z AUTO 08018G27KT 1 1/4SM -SN BR OVC004 M01/M03
A3011 RMK AO2 PK WND 06031/1357 SLP184 P0000 60000 T10111028 51024





000
SAUS45 KABQ 011454
MTRTCS
METAR KTCS 011453Z AUTO 02016KT 10SM SCT120 12/M01 A3000 RMK AO2
SLP101 T01171006 51027 TSNO





000
SAUS45 KABQ 011454
MTRTCS
METAR KTCS 011453Z AUTO 02016KT 10SM SCT120 12/M01 A3000 RMK AO2
SLP101 T01171006 51027 TSNO





000
SAUS45 KABQ 011454
MTRCQC
METAR KCQC 011453Z AUTO 08018G27KT 1 1/4SM -SN BR OVC004 M01/M03
A3011 RMK AO2 PK WND 06031/1357 SLP184 P0000 60000 T10111028 51024





000
SAUS45 KABQ 011443 COR
MTRCQC
SPECI KCQC 011439Z AUTO 08018G26KT 1 3/4SM -SN BR OVC004 M01/M03
A3011 RMK AO2 PK WND 06031/1357 P0000 T10111028





000
SAUS45 KABQ 011443 COR
MTRCQC
SPECI KCQC 011439Z AUTO 08018G26KT 1 3/4SM -SN BR OVC004 M01/M03
A3011 RMK AO2 PK WND 06031/1357 P0000 T10111028





000
SAUS45 KABQ 011441 COR
MTRCQC
SPECI KCQC 011439Z AUTO 08018G26KT 1 3/4SM -SN BR OVC004 M01/M03
A3011 RMK AO2 PK WND 06031/1357 P0000 T10111028





000
SAUS45 KABQ 011441 COR
MTRCQC
SPECI KCQC 011439Z AUTO 08018G26KT 1 3/4SM -SN BR OVC004 M01/M03
A3011 RMK AO2 PK WND 06031/1357 P0000 T10111028





000
SAUS45 KABQ 011440
MTRCQC
SPECI KCQC 011439Z AUTO 08018G26KT 1 3/4SM -SN BR OVC004 M01/M03
A3011 RMK AO2 PK WND 06031/1357 P0000 T10111028





000
SAUS45 KABQ 011440 COR
MTRCQC
SPECI KCQC 011439Z AUTO 08018G26KT 1 3/4SM -SN BR OVC004 M01/M03
A3011 RMK AO2 PK WND 06031/1357 P0000 T10111028





000
SAUS45 KABQ 011438 COR
MTRCQC
SPECI KCQC 011435Z AUTO 08019G27KT 2SM -SN BR OVC005 M01/M03 A3011
RMK AO2 PK WND 06031/1357 CIG 003V008 P0000 T10111028





000
SAUS45 KABQ 011437 COR
MTRCQC
SPECI KCQC 011435Z AUTO 08019G27KT 2SM -SN BR OVC005 M01/M03 A3011
RMK AO2 PK WND 06031/1357 CIG 003V008 P0000 T10111028





000
SAUS45 KABQ 011436
MTRCQC
SPECI KCQC 011435Z AUTO 08019G27KT 2SM -SN BR OVC005 M01/M03 A3011
RMK AO2 PK WND 06031/1357 CIG 003V008 P0000 T10111028





000
SAUS45 KABQ 011354
MTRTCS
METAR KTCS 011353Z AUTO 02015G20KT 10SM CLR 09/M01 A2997 RMK AO2
SLP097 T00941006 TSNO





000
SAUS45 KABQ 011354
MTRTCS
METAR KTCS 011353Z AUTO 02015G20KT 10SM CLR 09/M01 A2997 RMK AO2
SLP097 T00941006 TSNO





000
SAUS45 KABQ 011353
MTRCQC
METAR KCQC 011353Z AUTO 08018G27KT 6SM -SN BR OVC006 M01/M03 A3009
RMK AO2 PK WND 08030/1328 SLP170 P0000 T10111028





000
SAUS45 KABQ 011353 COR
MTRCQC
SPECI KCQC 011345Z AUTO 08019G28KT 5SM -SN BR OVC006 M02/M03 A3008
RMK AO2 PK WND 08030/1328 P0000 T10171028





000
SAUS45 KABQ 011353 COR
MTRCQC
SPECI KCQC 011345Z AUTO 08019G28KT 5SM -SN BR OVC006 M02/M03 A3008
RMK AO2 PK WND 08030/1328 P0000 T10171028





000
SAUS45 KABQ 011353
MTRCQC
METAR KCQC 011353Z AUTO 08018G27KT 6SM -SN BR OVC006 M01/M03 A3009
RMK AO2 PK WND 08030/1328 SLP170 P0000 T10111028





000
SAUS45 KABQ 011351 COR
MTRCQC
SPECI KCQC 011345Z AUTO 08019G28KT 5SM -SN BR OVC006 M02/M03 A3008
RMK AO2 PK WND 08030/1328 P0000 T10171028





000
SAUS45 KABQ 011350 COR
MTRCQC
SPECI KCQC 011345Z AUTO 08019G28KT 5SM -SN BR OVC006 M02/M03 A3008
RMK AO2 PK WND 08030/1328 P0000 T10171028





000
SAUS45 KABQ 011348 COR
MTRCQC
SPECI KCQC 011345Z AUTO 08019G28KT 5SM -SN BR OVC006 M02/M03 A3008
RMK AO2 PK WND 08030/1328 P0000 T10171028





000
SAUS45 KABQ 011347 COR
MTRCQC
SPECI KCQC 011345Z AUTO 08019G28KT 5SM -SN BR OVC006 M02/M03 A3008
RMK AO2 PK WND 08030/1328 P0000 T10171028





000
SAUS45 KABQ 011346
MTRCQC
SPECI KCQC 011345Z AUTO 08019G28KT 5SM -SN BR OVC006 M02/M03 A3008
RMK AO2 PK WND 08030/1328 P0000 T10171028





000
SAUS45 KABQ 011343 COR
MTRCQC
SPECI KCQC 011338Z AUTO 07021G29KT 2 1/2SM -SN BR OVC006 M02/M03
A3007 RMK AO2 PK WND 08030/1328 P0000 T10171033





000
SAUS45 KABQ 011341 COR
MTRCQC
SPECI KCQC 011338Z AUTO 07021G29KT 2 1/2SM -SN BR OVC006 M02/M03
A3007 RMK AO2 PK WND 08030/1328 P0000 T10171033





000
SAUS45 KABQ 011340 COR
MTRCQC
SPECI KCQC 011338Z AUTO 07021G29KT 2 1/2SM -SN BR OVC006 M02/M03
A3007 RMK AO2 PK WND 08030/1328 P0000 T10171033





000
SAUS45 KABQ 011340 COR
MTRCQC
SPECI KCQC 011338Z AUTO 07021G29KT 2 1/2SM -SN BR OVC006 M02/M03
A3007 RMK AO2 PK WND 08030/1328 P0000 T10171033





000
SAUS45 KABQ 011339
MTRCQC
SPECI KCQC 011338Z AUTO 07021G29KT 2 1/2SM -SN BR OVC006 M02/M03
A3007 RMK AO2 PK WND 08030/1328 P0000 T10171033





000
SAUS45 KABQ 011329 COR
MTRCQC
SPECI KCQC 011324Z AUTO 08020G28KT 1 1/2SM -SN BR OVC004 M02/M03
A3007 RMK AO2 PK WND 09028/1310 P0000 T10171028





000
SAUS45 KABQ 011327 COR
MTRCQC
SPECI KCQC 011324Z AUTO 08020G28KT 1 1/2SM -SN BR OVC004 M02/M03
A3007 RMK AO2 PK WND 09028/1310 P0000 T10171028





000
SAUS45 KABQ 011326
MTRCQC
SPECI KCQC 011324Z AUTO 08020G28KT 1 1/2SM -SN BR OVC004 M02/M03
A3007 RMK AO2 PK WND 09028/1310 P0000 T10171028





000
SAUS45 KABQ 011258 COR
MTRCQC
METAR KCQC 011253Z AUTO 09020G29KT 7SM -SN OVC004 M02/M03 A3006 RMK
AO2 PK WND 08029/1235 SNB04 SLP152 P0000 T10171028





000
SAUS45 KABQ 011258 COR
MTRCQC
METAR KCQC 011253Z AUTO 09020G29KT 7SM -SN OVC004 M02/M03 A3006 RMK
AO2 PK WND 08029/1235 SNB04 SLP152 P0000 T10171028





000
SAUS45 KABQ 011256 COR
MTRCQC
METAR KCQC 011253Z AUTO 09020G29KT 7SM -SN OVC004 M02/M03 A3006 RMK
AO2 PK WND 08029/1235 SNB04 SLP152 P0000 T10171028





000
SAUS45 KABQ 011256 COR
MTRCQC
METAR KCQC 011253Z AUTO 09020G29KT 7SM -SN OVC004 M02/M03 A3006 RMK
AO2 PK WND 08029/1235 SNB04 SLP152 P0000 T10171028





000
SAUS45 KABQ 011255 COR
MTRCQC
METAR KCQC 011253Z AUTO 09020G29KT 7SM -SN OVC004 M02/M03 A3006 RMK
AO2 PK WND 08029/1235 SNB04 SLP152 P0000 T10171028





000
SAUS45 KABQ 011255 COR
MTRCQC
METAR KCQC 011253Z AUTO 09020G29KT 7SM -SN OVC004 M02/M03 A3006 RMK
AO2 PK WND 08029/1235 SNB04 SLP152 P0000 T10171028





000
SAUS45 KABQ 011254
MTRTCS
METAR KTCS 011253Z AUTO 02014KT 10SM BKN120 08/M01 A2993 RMK AO2 PK
WND 03026/1217 SLP081 T00831006 TSNO





000
SAUS45 KABQ 011254
MTRCQC
METAR KCQC 011253Z AUTO 09020G29KT 7SM -SN OVC004 M02/M03 A3006 RMK
AO2 PK WND 08029/1235 SNB04 SLP152 P0000 T10171028





000
SAUS45 KABQ 011159 COR
MTRCQC
METAR KCQC 011153Z AUTO 08021G26KT 10SM OVC004 M02/M03 A3003 RMK AO2
PK WND 07028/1056 WSHFT 1045 UPB12E18SNE12B28E40 CIG 003V007 SLP137
P0000 60002 70002 T10171028 11006 21017 58001





000
SAUS45 KABQ 011159 COR
MTRCQC
METAR KCQC 011153Z AUTO 08021G26KT 10SM OVC004 M02/M03 A3003 RMK AO2
PK WND 07028/1056 WSHFT 1045 UPB12E18SNE12B28E40 CIG 003V007 SLP137
P0000 60002 70002 T10171028 11006 21017 58001





000
SAUS45 KABQ 011156 COR
MTRTCS
METAR KTCS 011153Z AUTO 02017G23KT 10SM FEW120 09/00 A2990 RMK AO2
PK WND 02027/1142 SLP070 T00890000 10183 20089 53025 TSNO





000
SAUS45 KABQ 011156 COR
MTRCQC
METAR KCQC 011153Z AUTO 08021G26KT 10SM OVC004 M02/M03 A3003 RMK AO2
PK WND 07028/1056 WSHFT 1045 UPB12E18SNE12B28E40 CIG 003V007 SLP137
P0000 60002 70002 T10171028 11006 21017 58001





000
SAUS45 KABQ 011156 COR
MTRTCS
METAR KTCS 011153Z AUTO 02017G23KT 10SM FEW120 09/00 A2990 RMK AO2
PK WND 02027/1142 SLP070 T00890000 10183 20089 53025 TSNO





000
SAUS45 KABQ 011156 COR
MTRCQC
METAR KCQC 011153Z AUTO 08021G26KT 10SM OVC004 M02/M03 A3003 RMK AO2
PK WND 07028/1056 WSHFT 1045 UPB12E18SNE12B28E40 CIG 003V007 SLP137
P0000 60002 70002 T10171028 11006 21017 58001





000
SAUS45 KABQ 011155 COR
MTRCQC
METAR KCQC 011153Z AUTO 08021G26KT 10SM OVC004 M02/M03 A3003 RMK AO2
PK WND 07028/1056 WSHFT 1045 UPB12E18SNE12B28E40 CIG 003V007 SLP137
P0000 60002 70002 T10171028 11006 21017 58001





000
SAUS45 KABQ 011154
MTRCQC
METAR KCQC 011153Z AUTO 08021G26KT 10SM OVC004 M02/M03 A3003 RMK AO2
PK WND 07028/1056 WSHFT 1045 UPB12E18SNE12B28E40 CIG 003V007 SLP137
P0000 60002 70002 T10171028 11006 21017 58001





000
SAUS45 KABQ 011153 COR
MTRCQC
SPECI KCQC 011143Z AUTO 08019G27KT 9SM OVC004 M02/M03 A3003 RMK AO2
PK WND 07028/1056 WSHFT 1045 UPB12E18SNE12B28E40 P0000 T10171028





000
SAUS45 KABQ 011153 COR
MTRCQC
SPECI KCQC 011143Z AUTO 08019G27KT 9SM OVC004 M02/M03 A3003 RMK AO2
PK WND 07028/1056 WSHFT 1045 UPB12E18SNE12B28E40 P0000 T10171028





000
SAUS45 KABQ 011152 COR
MTRCQC
SPECI KCQC 011143Z AUTO 08019G27KT 9SM OVC004 M02/M03 A3003 RMK AO2
PK WND 07028/1056 WSHFT 1045 UPB12E18SNE12B28E40 P0000 T10171028





000
SAUS45 KABQ 011151 COR
MTRCQC
SPECI KCQC 011143Z AUTO 08019G27KT 9SM OVC004 M02/M03 A3003 RMK AO2
PK WND 07028/1056 WSHFT 1045 UPB12E18SNE12B28E40 P0000 T10171028





    US Dept of Commerce
    National Oceanic and Atmospheric Administration
    National Weather Service
    1325 East West Highway
    Silver Spring, MD 20910
    Page Author: NWS Internet Services Team
Disclaimer
Information Quality
Credits
Glossary
Privacy Policy
Freedom of Information Act (FOIA)
About Us
Career Opportunities